Time;durP1;ratioP1;P1;durP2;ratioP2;P2;SDS_P1;SDS_P2;PMS_P1;PMS_P2;Temp;Humidity;BMP_temperature;BMP_pressure;BME280_temperature;BME280_humidity;BME280_pressure;Samples;Min_cycle;Max_cycle;Signal;HPM_P1;HPM_P2
2022/09/15 00:00:46;;;;;;;7.40;3.70;;;;;;;19.61;100.00;97171.88;4128577;28;20732;-85
2022/09/15 00:02:50;;;;;;;5.10;3.80;;;;;;;19.62;100.00;97166.41;4149870;28;20629;-85
2022/09/15 00:04:55;;;;;;;7.27;3.50;;;;;;;19.63;100.00;97167.22;4144490;28;21244;-84
2022/09/15 00:06:57;;;;;;;7.13;4.10;;;;;;;19.62;100.00;97169.06;4131770;28;20659;-84
2022/09/15 00:09:00;;;;;;;10.20;4.63;;;;;;;19.63;100.00;97156.63;4134726;28;21024;-84
2022/09/15 00:11:06;;;;;;;3.80;3.40;;;;;;;19.62;100.00;97165.56;4151675;28;20626;-84
2022/09/15 00:13:12;;;;;;;4.90;4.00;;;;;;;19.56;100.00;97156.56;4145183;28;20637;-84
2022/09/15 00:15:16;;;;;;;5.23;4.33;;;;;;;19.50;100.00;97157.28;4145082;28;20636;-85
2022/09/15 00:17:19;;;;;;;6.13;4.03;;;;;;;19.48;100.00;97159.28;4161147;28;20701;-84
2022/09/15 00:19:22;;;;;;;4.40;3.80;;;;;;;19.48;100.00;97153.16;4161351;28;20635;-84
2022/09/15 00:21:29;;;;;;;5.17;4.13;;;;;;;19.50;100.00;97137.91;4149687;28;21039;-84
2022/09/15 00:23:33;;;;;;;7.80;4.10;;;;;;;19.52;100.00;97143.88;4143834;28;21044;-84
2022/09/15 00:25:42;;;;;;;5.50;3.50;;;;;;;19.48;100.00;97143.41;4128470;28;20721;-85
2022/09/15 00:27:46;;;;;;;7.50;4.83;;;;;;;19.46;100.00;97145.41;4141156;28;20682;-84
2022/09/15 00:29:49;;;;;;;7.80;4.73;;;;;;;19.46;100.00;97150.69;4164810;28;20643;-85
2022/09/15 00:31:52;;;;;;;5.60;3.50;;;;;;;19.47;100.00;97147.06;4142694;28;20648;-84
2022/09/15 00:33:57;;;;;;;5.10;4.33;;;;;;;19.48;100.00;97147.88;4132424;28;20645;-85
2022/09/15 00:36:03;;;;;;;7.33;3.47;;;;;;;19.49;100.00;97155.63;4158849;28;20628;-85
2022/09/15 00:38:08;;;;;;;6.60;3.23;;;;;;;19.48;100.00;97143.41;4157946;28;21219;-84
2022/09/15 00:40:11;;;;;;;5.00;3.90;;;;;;;19.48;100.00;97151.34;4139758;28;20691;-84
2022/09/15 00:42:15;;;;;;;7.10;4.27;;;;;;;19.47;100.00;97141.78;4168831;28;20723;-84
2022/09/15 00:45:01;;;;;;;5.40;3.80;;;;;;;19.47;100.00;97140.97;4138906;28;20636;-84
2022/09/15 00:47:05;;;;;;;5.47;4.20;;;;;;;19.44;100.00;97141.31;4158450;28;21054;-85
2022/09/15 00:49:26;;;;;;;7.33;3.83;;;;;;;19.44;100.00;97143.97;4149035;28;21415;-84
2022/09/15 00:51:34;;;;;;;5.90;3.73;;;;;;;19.41;100.00;97147.78;4153665;28;20633;-84
2022/09/15 00:53:38;;;;;;;6.87;4.10;;;;;;;19.40;100.00;97151.41;4131989;28;21210;-84
2022/09/15 00:55:44;;;;;;;5.03;3.47;;;;;;;19.40;100.00;97153.25;4170745;28;21181;-84
2022/09/15 00:57:50;;;;;;;6.03;3.90;;;;;;;19.43;100.00;97155.53;4150630;28;22797;-84
2022/09/15 00:59:55;;;;;;;7.80;4.40;;;;;;;19.44;100.00;97141.31;4157727;28;20629;-84
2022/09/15 01:02:03;;;;;;;5.20;4.20;;;;;;;19.44;100.00;97130.75;4152153;28;20685;-84
2022/09/15 01:04:06;;;;;;;5.10;4.30;;;;;;;19.46;100.00;97144.59;4142900;28;20647;-84
2022/09/15 01:06:12;;;;;;;8.93;4.30;;;;;;;19.47;100.00;97149.69;4140943;28;20674;-84
2022/09/15 01:08:18;;;;;;;7.73;4.97;;;;;;;19.49;100.00;97147.69;4150992;28;20645;-84
2022/09/15 01:10:26;;;;;;;5.80;4.10;;;;;;;19.49;100.00;97150.34;4140648;28;20638;-84
2022/09/15 01:12:29;;;;;;;6.77;4.10;;;;;;;19.51;100.00;97150.97;4151164;28;20628;-84
2022/09/15 01:14:32;;;;;;;6.43;4.30;;;;;;;19.53;100.00;97151.63;4166275;28;20675;-84
2022/09/15 01:16:44;;;;;;;6.00;4.60;;;;;;;19.54;100.00;97142.66;4153833;28;20638;-85
2022/09/15 01:18:55;;;;;;;5.67;4.60;;;;;;;19.56;100.00;97145.97;4149832;28;20633;-84
2022/09/15 01:21:05;;;;;;;5.47;4.23;;;;;;;19.58;100.00;97143.13;4168733;28;20976;-84
2022/09/15 01:23:30;;;;;;;5.60;4.20;;;;;;;19.58;100.00;97137.84;4150847;28;20660;-85
2022/09/15 01:25:50;;;;;;;7.13;4.40;;;;;;;19.59;100.00;97142.94;4152092;28;20709;-85
2022/09/15 01:28:12;;;;;;;5.73;4.47;;;;;;;19.60;100.00;97131.34;4147708;28;20648;-85
2022/09/15 01:30:17;;;;;;;5.40;4.50;;;;;;;19.61;100.00;97137.47;4140424;28;20689;-85
2022/09/15 01:34:51;;;;;;;5.70;5.10;;;;;;;19.62;100.00;97124.06;4134996;28;20646;-85
2022/09/15 01:36:57;;;;;;;10.70;4.33;;;;;;;19.61;100.00;97125.06;4152604;28;21280;-84
2022/09/15 01:39:04;;;;;;;6.73;4.27;;;;;;;19.60;100.00;97125.25;4165140;28;20633;-85
2022/09/15 01:41:10;;;;;;;5.03;3.97;;;;;;;19.59;100.00;97111.19;4134689;28;20653;-84
2022/09/15 01:43:15;;;;;;;5.13;4.27;;;;;;;19.57;100.00;97115.84;4137361;28;20658;-84
2022/09/15 01:45:22;;;;;;;5.90;4.20;;;;;;;19.58;100.00;97112.19;4137657;28;21273;-84
2022/09/15 01:47:28;;;;;;;11.10;4.50;;;;;;;19.58;100.00;97106.91;4145965;28;20634;-84
2022/09/15 01:49:34;;;;;;;6.33;4.17;;;;;;;19.60;100.00;97106.72;4154276;28;20625;-85
2022/09/15 01:51:39;;;;;;;5.53;4.37;;;;;;;19.60;100.00;97104.88;4156417;28;20640;-85
2022/09/15 01:53:42;;;;;;;17.20;4.53;;;;;;;19.60;100.00;97107.53;4164713;28;21029;-85
2022/09/15 01:55:49;;;;;;;6.40;4.63;;;;;;;19.59;100.00;97100.63;4150237;28;20640;-85
2022/09/15 01:57:52;;;;;;;4.87;4.37;;;;;;;19.59;100.00;97111.19;4151839;28;20634;-85
2022/09/15 01:59:56;;;;;;;7.50;4.20;;;;;;;19.58;100.00;97112.19;4148634;28;20634;-84
2022/09/15 02:02:04;;;;;;;10.70;5.03;;;;;;;19.57;100.00;97110.53;4150853;28;20685;-85
2022/09/15 02:04:11;;;;;;;5.67;4.53;;;;;;;19.56;100.00;97108.91;4145971;28;20708;-85
2022/09/15 02:06:20;;;;;;;5.73;4.47;;;;;;;19.52;100.00;97110.28;4150267;28;20707;-84
2022/09/15 02:08:26;;;;;;;6.33;4.67;;;;;;;19.50;100.00;97117.59;4135187;28;20627;-85
2022/09/15 02:10:34;;;;;;;5.50;4.77;;;;;;;19.46;100.00;97111.00;4152325;28;20803;-85
2022/09/15 02:12:43;;;;;;;6.07;4.60;;;;;;;19.47;100.00;97111.84;4138019;28;20734;-85
2022/09/15 02:14:52;;;;;;;7.70;5.30;;;;;;;19.47;100.00;97112.66;4132392;28;20744;-85
2022/09/15 02:16:55;;;;;;;5.43;4.90;;;;;;;19.47;100.00;97109.22;4150927;28;20785;-85
2022/09/15 02:19:10;;;;;;;6.00;4.70;;;;;;;19.47;100.00;97109.22;4162483;28;21274;-85
2022/09/15 02:21:17;;;;;;;6.83;4.63;;;;;;;19.48;100.00;97108.19;4149328;28;21261;-85
2022/09/15 02:23:25;;;;;;;5.30;4.80;;;;;;;19.46;100.00;97111.00;4138708;28;20669;-85
2022/09/15 02:25:31;;;;;;;9.87;5.23;;;;;;;19.46;100.00;97105.72;4135378;28;20745;-85
2022/09/15 02:27:37;;;;;;;5.80;4.53;;;;;;;19.45;100.00;97100.63;4145642;28;20688;-85
2022/09/15 02:29:42;;;;;;;5.53;4.53;;;;;;;19.46;100.00;97104.91;4154850;28;21086;-84
2022/09/15 02:31:45;;;;;;;5.23;4.67;;;;;;;19.47;100.00;97094.16;4141126;28;20634;-85
2022/09/15 02:33:51;;;;;;;6.50;5.83;;;;;;;19.49;100.00;97102.72;4150739;28;21210;-85
2022/09/15 02:35:56;;;;;;;13.23;6.43;;;;;;;19.52;100.00;97107.63;4150680;28;20664;-85
2022/09/15 02:37:59;;;;;;;5.63;4.90;;;;;;;19.55;100.00;97106.47;4148413;28;20631;-85
2022/09/15 02:40:03;;;;;;;5.20;4.70;;;;;;;19.54;100.00;97100.31;4147849;28;21098;-85
2022/09/15 02:42:07;;;;;;;5.97;4.90;;;;;;;19.57;100.00;97102.59;4138866;28;20684;-84
2022/09/15 02:44:10;;;;;;;7.33;5.40;;;;;;;19.60;100.00;97104.06;4140791;28;20676;-85
2022/09/15 02:46:14;;;;;;;5.20;4.47;;;;;;;19.59;100.00;97097.97;4151882;28;20952;-85
2022/09/15 02:48:17;;;;;;;4.77;4.37;;;;;;;19.59;100.00;97097.13;4144172;28;20648;-85
2022/09/15 02:50:20;;;;;;;6.47;4.90;;;;;;;19.60;100.00;97091.66;4140888;28;20658;-85
2022/09/15 02:52:25;;;;;;;7.47;4.87;;;;;;;19.60;100.00;97089.00;4143535;28;20730;-84
2022/09/15 02:54:28;;;;;;;7.93;4.70;;;;;;;19.60;100.00;97088.19;4164215;28;21018;-85
2022/09/15 02:56:31;;;;;;;6.70;4.70;;;;;;;19.57;100.00;97092.03;4138011;28;20641;-85
2022/09/15 02:58:34;;;;;;;6.63;4.00;;;;;;;19.60;100.00;97085.56;4152209;28;20634;-84
2022/09/15 03:00:37;;;;;;;4.73;4.03;;;;;;;19.62;100.00;97086.19;4150015;28;20652;-84
2022/09/15 03:02:41;;;;;;;4.77;4.10;;;;;;;19.65;100.00;97084.00;4135968;28;21245;-85
2022/09/15 03:04:44;;;;;;;5.63;4.30;;;;;;;19.64;100.00;97087.66;4139725;28;21079;-84
2022/09/15 03:06:47;;;;;;;4.90;4.03;;;;;;;19.66;100.00;97087.47;4131533;28;20659;-85
2022/09/15 03:08:52;;;;;;;6.77;4.10;;;;;;;19.68;100.00;97090.72;4139159;28;20642;-85
2022/09/15 03:10:57;;;;;;;6.47;4.00;;;;;;;19.69;100.00;97087.91;4158815;28;21142;-85
2022/09/15 03:13:00;;;;;;;6.50;4.17;;;;;;;19.72;100.00;97084.06;4141916;28;20685;-85
2022/09/15 03:15:04;;;;;;;4.00;3.50;;;;;;;19.70;100.00;97088.75;4167881;28;20651;-85
2022/09/15 03:17:07;;;;;;;5.00;4.10;;;;;;;19.68;100.00;97075.69;4136143;28;20631;-85
2022/09/15 03:19:11;;;;;;;5.53;4.00;;;;;;;19.69;100.00;97082.63;4137470;28;20626;-85
2022/09/15 03:21:15;;;;;;;4.47;4.07;;;;;;;19.68;100.00;97083.63;4148527;28;20664;-85
2022/09/15 03:23:18;;;;;;;8.20;4.10;;;;;;;19.66;100.00;97082.97;4169233;28;20662;-85
2022/09/15 03:25:26;;;;;;;4.87;3.90;;;;;;;19.67;100.00;97079.34;4163288;28;21286;-84
2022/09/15 03:27:29;;;;;;;3.63;3.27;;;;;;;19.69;100.00;97087.91;4141197;28;21054;-85
2022/09/15 03:29:32;;;;;;;4.90;3.70;;;;;;;19.68;100.00;97078.34;4138912;28;20673;-85
2022/09/15 03:31:35;;;;;;;5.13;3.60;;;;;;;19.71;100.00;97079.78;4147239;28;20630;-85
2022/09/15 03:33:38;;;;;;;6.20;3.93;;;;;;;19.71;100.00;97087.72;4159499;28;20732;-85
2022/09/15 03:35:41;;;;;;;3.70;3.13;;;;;;;19.68;100.00;97075.69;4166258;28;20717;-85
2022/09/15 03:37:44;;;;;;;5.00;3.40;;;;;;;19.67;100.00;97083.81;4153897;28;20630;-85
2022/09/15 03:39:47;;;;;;;4.47;3.03;;;;;;;19.65;100.00;97084.00;4135105;28;20636;-85
2022/09/15 03:41:52;;;;;;;3.30;3.00;;;;;;;19.64;100.00;97085.00;4149131;28;20622;-85
2022/09/15 03:43:55;;;;;;;10.60;2.90;;;;;;;19.59;100.00;97079.44;4148295;28;20653;-85
2022/09/15 03:45:58;;;;;;;4.83;2.73;;;;;;;19.57;100.00;97084.09;4136306;28;20641;-84
2022/09/15 03:48:02;;;;;;;5.80;2.80;;;;;;;19.54;100.00;97071.22;4136811;28;20635;-85
2022/09/15 03:50:06;;;;;;;4.80;3.30;;;;;;;19.52;100.00;97083.81;4169858;28;20682;-85
2022/09/15 03:52:11;;;;;;;4.70;3.10;;;;;;;19.56;100.00;97084.28;4137035;28;20627;-84
2022/09/15 03:54:14;;;;;;;6.20;2.80;;;;;;;19.58;100.00;97083.09;4139821;28;21213;-85
2022/09/15 03:56:22;;;;;;;4.57;2.80;;;;;;;19.58;100.00;97083.09;4171465;28;20652;-85
2022/09/15 03:58:26;;;;;;;4.40;2.70;;;;;;;19.57;100.00;97089.38;4137556;28;21008;-85
2022/09/15 04:00:32;;;;;;;4.33;2.87;;;;;;;19.58;100.00;97085.75;4144147;28;20659;-84
2022/09/15 04:02:36;;;;;;;5.00;3.30;;;;;;;19.59;100.00;97082.09;4152777;28;20638;-84
2022/09/15 04:04:38;;;;;;;4.53;2.50;;;;;;;19.61;100.00;97074.78;4140498;28;20709;-84
2022/09/15 04:06:41;;;;;;;5.17;2.57;;;;;;;19.61;100.00;97080.06;4160614;28;20709;-84
2022/09/15 04:08:44;;;;;;;4.10;2.93;;;;;;;19.61;100.00;97080.06;4137727;28;20631;-84
2022/09/15 04:10:48;;;;;;;3.43;2.87;;;;;;;19.58;100.00;97075.16;4136025;28;21031;-84
2022/09/15 04:12:51;;;;;;;4.03;2.50;;;;;;;19.59;100.00;97084.75;4159129;28;20699;-85
2022/09/15 04:14:55;;;;;;;4.80;2.50;;;;;;;19.59;100.00;97076.81;4150648;28;20985;-85
2022/09/15 04:16:58;;;;;;;3.30;2.27;;;;;;;19.60;100.00;97072.31;4168254;28;20639;-85
2022/09/15 04:19:01;;;;;;;5.03;2.60;;;;;;;19.58;100.00;97075.16;4134701;28;20626;-84
2022/09/15 04:21:07;;;;;;;3.93;2.40;;;;;;;19.60;100.00;97078.44;4156073;28;20711;-85
2022/09/15 04:23:10;;;;;;;4.00;2.33;;;;;;;19.64;100.00;97078.91;4151342;28;20993;-85
2022/09/15 04:25:13;;;;;;;4.37;2.40;;;;;;;19.65;100.00;97072.56;4151088;28;20732;-85
2022/09/15 04:27:17;;;;;;;3.30;2.50;;;;;;;19.62;100.00;97078.25;4148749;28;20633;-85
2022/09/15 04:29:20;;;;;;;3.83;2.50;;;;;;;19.63;100.00;97075.41;4144761;28;20720;-84
2022/09/15 04:31:24;;;;;;;3.20;2.43;;;;;;;19.64;100.00;97074.41;4155773;28;20703;-84
2022/09/15 04:33:27;;;;;;;7.17;2.53;;;;;;;19.61;100.00;97082.72;4170145;28;20664;-85
2022/09/15 04:35:30;;;;;;;3.33;2.47;;;;;;;19.60;100.00;97081.06;4135024;28;20740;-85
2022/09/15 04:37:35;;;;;;;3.63;2.30;;;;;;;19.62;100.00;97075.59;4155174;28;20628;-85
2022/09/15 04:39:38;;;;;;;3.97;2.17;;;;;;;19.62;100.00;97075.59;4155492;28;20638;-85
2022/09/15 04:41:41;;;;;;;4.03;2.80;;;;;;;19.59;100.00;97079.44;4151785;28;20720;-85
2022/09/15 04:43:44;;;;;;;3.93;2.60;;;;;;;19.61;100.00;97069.50;4172600;28;21355;-85
2022/09/15 04:45:47;;;;;;;3.27;1.80;;;;;;;19.61;100.00;97069.50;4170828;28;20737;-85
2022/09/15 04:47:52;;;;;;;3.77;2.30;;;;;;;19.59;100.00;97078.59;4155844;28;20635;-85
2022/09/15 04:49:55;;;;;;;4.37;2.37;;;;;;;19.58;100.00;97075.16;4154901;28;20638;-85
2022/09/15 04:51:58;;;;;;;4.30;2.03;;;;;;;19.59;100.00;97073.31;4148198;28;20727;-84
2022/09/15 04:54:01;;;;;;;5.80;2.00;;;;;;;19.55;100.00;97080.00;4163679;28;21072;-85
2022/09/15 04:56:04;;;;;;;2.53;1.77;;;;;;;19.52;100.00;97083.00;4175025;28;20637;-84
2022/09/15 04:58:08;;;;;;;3.80;2.13;;;;;;;19.54;100.00;97076.50;4140036;28;20668;-85
2022/09/15 05:00:12;;;;;;;3.00;2.40;;;;;;;19.51;100.00;97073.44;4149131;28;20737;-85
2022/09/15 05:02:15;;;;;;;3.40;2.30;;;;;;;19.56;100.00;97084.28;4144342;28;20639;-85
2022/09/15 05:04:20;;;;;;;4.93;1.90;;;;;;;19.57;100.00;97080.63;4157390;28;20688;-85
2022/09/15 05:06:25;;;;;;;3.63;1.93;;;;;;;19.59;100.00;97079.44;4133478;28;20665;-84
2022/09/15 05:08:28;;;;;;;3.67;2.70;;;;;;;19.60;100.00;97081.06;4160625;28;20676;-85
2022/09/15 05:10:32;;;;;;;6.80;2.20;;;;;;;19.63;100.00;97088.63;4159105;28;21035;-84
2022/09/15 05:12:35;;;;;;;3.50;2.33;;;;;;;19.67;100.00;97094.41;4160610;28;20625;-84
2022/09/15 05:14:38;;;;;;;4.10;2.33;;;;;;;19.67;100.00;97095.22;4150088;28;21263;-85
2022/09/15 05:16:41;;;;;;;4.70;2.50;;;;;;;19.68;100.00;97091.56;4132161;28;20639;-85
2022/09/15 05:18:46;;;;;;;4.90;2.10;;;;;;;19.69;100.00;97101.13;4152039;28;20647;-84
2022/09/15 05:20:58;;;;;;;5.80;2.90;;;;;;;19.69;100.00;97103.78;4152698;28;20711;-88
2022/09/15 05:23:01;;;;;;;4.17;2.30;;;;;;;19.72;100.00;97097.31;4139408;28;20633;-88
2022/09/15 05:25:04;;;;;;;4.60;2.87;;;;;;;19.71;100.00;97106.25;4140195;28;20701;-85
2022/09/15 05:27:07;;;;;;;3.43;2.23;;;;;;;19.72;100.00;97105.25;4151669;28;21117;-85
2022/09/15 05:29:10;;;;;;;6.33;2.50;;;;;;;19.72;100.00;97098.13;4139041;28;20822;-85
2022/09/15 05:31:17;;;;;;;4.43;2.33;;;;;;;19.72;100.00;97105.25;4138123;28;20683;-85
2022/09/15 05:33:21;;;;;;;5.10;2.63;;;;;;;19.68;100.00;97102.16;4154199;28;21204;-85
2022/09/15 05:35:24;;;;;;;9.20;2.30;;;;;;;19.63;100.00;97099.22;4165480;28;20630;-86
2022/09/15 05:37:29;;;;;;;3.37;2.40;;;;;;;19.55;100.00;97101.97;4127540;28;21006;-87
2022/09/15 05:39:32;;;;;;;3.80;2.57;;;;;;;19.54;100.00;97091.56;4137247;28;22346;-86
2022/09/15 05:41:35;;;;;;;4.27;2.20;;;;;;;19.48;100.00;97094.97;4135363;28;20649;-86
2022/09/15 05:43:39;;;;;;;4.00;2.53;;;;;;;19.48;100.00;97093.16;4152528;28;20625;-86
2022/09/15 05:45:42;;;;;;;3.80;2.40;;;;;;;19.51;100.00;97110.47;4152085;28;20698;-85
2022/09/15 05:47:45;;;;;;;4.17;2.60;;;;;;;19.52;100.00;97101.53;4144752;28;21049;-86
2022/09/15 05:49:48;;;;;;;3.73;2.70;;;;;;;19.54;100.00;97104.81;4163194;28;20643;-86
2022/09/15 05:51:51;;;;;;;4.40;2.50;;;;;;;19.54;100.00;97105.63;4167135;28;20630;-88
2022/09/15 05:53:55;;;;;;;4.20;2.77;;;;;;;19.54;100.00;97107.47;4152577;28;20652;-86
2022/09/15 05:56:00;;;;;;;7.90;2.40;;;;;;;19.52;100.00;97112.13;4150411;28;20734;-87
2022/09/15 05:58:03;;;;;;;4.00;2.80;;;;;;;19.51;100.00;97116.56;4131963;28;20636;-86
2022/09/15 06:00:08;;;;;;;4.50;2.80;;;;;;;19.52;100.00;97114.75;4137401;28;21009;-86
2022/09/15 06:02:14;;;;;;;6.37;2.90;;;;;;;19.52;100.00;97117.41;4146169;28;20986;-86
2022/09/15 06:04:17;;;;;;;5.70;2.33;;;;;;;19.47;100.00;97106.56;4148594;28;20723;-87
2022/09/15 06:06:21;;;;;;;2.87;2.43;;;;;;;19.42;100.00;97115.06;4145282;28;20705;-87
2022/09/15 06:08:24;;;;;;;4.10;2.20;;;;;;;19.42;100.00;97104.47;4138128;28;20638;-87
2022/09/15 06:10:29;;;;;;;4.83;2.50;;;;;;;19.44;100.00;97114.88;4136580;28;21097;-86
2022/09/15 06:12:32;;;;;;;4.20;2.37;;;;;;;19.45;100.00;97111.19;4144130;28;21363;-85
2022/09/15 06:14:35;;;;;;;4.27;2.60;;;;;;;19.43;100.00;97105.28;4148559;28;21001;-85
2022/09/15 06:16:38;;;;;;;3.50;2.50;;;;;;;19.42;100.00;97108.91;4128512;28;20708;-86
2022/09/15 06:18:42;;;;;;;4.10;2.30;;;;;;;19.44;100.00;97120.16;4144474;28;20677;-87
2022/09/15 06:20:45;;;;;;;6.90;3.90;;;;;;;19.47;100.00;97112.66;4148965;28;20621;-87
2022/09/15 06:22:48;;;;;;;4.63;2.70;;;;;;;19.44;100.00;97107.75;4136255;28;20740;-87
2022/09/15 06:24:51;;;;;;;3.60;2.70;;;;;;;19.38;100.00;97116.41;4133235;28;20946;-86
2022/09/15 06:26:56;;;;;;;3.50;2.13;;;;;;;19.35;100.00;97117.75;4148174;28;21154;-86
2022/09/15 06:29:00;;;;;;;6.80;2.70;;;;;;;19.26;100.00;97121.50;4133607;28;20636;-87
2022/09/15 06:31:03;;;;;;;5.13;3.43;;;;;;;19.19;100.00;97117.94;4140657;28;20639;-87
2022/09/15 06:33:06;;;;;;;4.67;2.77;;;;;;;19.15;100.00;97140.47;4140831;28;21265;-87
2022/09/15 06:35:09;;;;;;;5.53;4.43;;;;;;;19.12;100.00;97122.31;4147976;28;20675;-86
2022/09/15 06:37:12;;;;;;;4.60;2.20;;;;;;;19.09;100.00;97135.88;4151012;28;21261;-86
2022/09/15 06:39:15;;;;;;;4.40;2.40;;;;;;;19.09;100.00;97125.31;4148693;28;21180;-87
2022/09/15 06:41:19;;;;;;;4.60;3.50;;;;;;;19.10;100.00;97134.91;4132197;28;21030;-86
2022/09/15 06:43:23;;;;;;;3.90;3.10;;;;;;;19.15;100.00;97129.88;4140717;28;21212;-87
2022/09/15 06:45:26;;;;;;;4.60;2.50;;;;;;;19.17;100.00;97139.28;4140518;28;21263;-87
2022/09/15 06:47:32;;;;;;;4.80;2.67;;;;;;;19.19;100.00;97139.09;4133842;28;20643;-86
2022/09/15 06:49:36;;;;;;;3.47;2.50;;;;;;;19.22;100.00;97128.97;4136048;28;20647;-86
2022/09/15 06:51:39;;;;;;;4.23;2.67;;;;;;;19.24;100.00;97137.53;4148210;28;20652;-87
2022/09/15 06:53:42;;;;;;;5.67;2.80;;;;;;;19.22;100.00;97142.19;4135356;28;20648;-87
2022/09/15 06:55:45;;;;;;;7.50;2.90;;;;;;;19.23;100.00;97151.78;4140113;28;20641;-87
2022/09/15 06:57:49;;;;;;;4.17;2.77;;;;;;;19.25;100.00;97155.06;4143442;28;20680;-86
2022/09/15 06:59:54;;;;;;;3.07;2.77;;;;;;;19.26;100.00;97164.66;4152482;28;20636;-87
2022/09/15 07:01:57;;;;;;;5.03;2.67;;;;;;;19.29;100.00;97163.44;4154528;28;20675;-87
2022/09/15 07:04:08;;;;;;;5.60;2.90;;;;;;;19.31;100.00;97151.69;4147076;28;20667;-87
2022/09/15 07:06:12;;;;;;;5.50;3.40;;;;;;;19.33;100.00;97154.16;4125624;28;20728;-87
2022/09/15 07:08:15;;;;;;;4.60;2.90;;;;;;;19.33;100.00;97162.09;4132628;28;21028;-87
2022/09/15 07:10:18;;;;;;;4.80;2.60;;;;;;;19.33;100.00;97164.75;4161453;28;20680;-87
2022/09/15 07:12:21;;;;;;;4.40;2.80;;;;;;;19.33;100.00;97170.03;4150261;28;20653;-87
2022/09/15 07:14:24;;;;;;;4.03;3.10;;;;;;;19.30;100.00;97162.47;4131827;28;20724;-86
2022/09/15 07:16:29;;;;;;;8.77;4.60;;;;;;;19.25;100.00;97162.19;4132262;28;20641;-87
2022/09/15 07:18:33;;;;;;;5.67;3.57;;;;;;;19.16;100.00;97163.25;4137828;28;20640;-86
2022/09/15 07:20:38;;;;;;;5.30;3.40;;;;;;;19.09;100.00;97160.53;4154665;28;21186;-84
2022/09/15 07:22:42;;;;;;;10.13;3.70;;;;;;;19.09;100.00;97164.97;4165391;28;21350;-84
2022/09/15 07:24:45;;;;;;;4.73;3.37;;;;;;;19.08;100.00;97171.28;4170795;28;20642;-84
2022/09/15 07:26:48;;;;;;;4.43;3.30;;;;;;;19.05;100.00;97172.44;4157193;28;20686;-84
2022/09/15 07:28:56;;;;;;;4.87;3.60;;;;;;;19.09;100.00;97178.19;4134227;28;20705;-86
2022/09/15 07:30:59;;;;;;;5.00;3.17;;;;;;;19.06;100.00;97178.53;4137743;28;21025;-86
2022/09/15 07:33:04;;;;;;;5.10;3.00;;;;;;;19.07;100.00;97178.38;4152942;28;20730;-87
2022/09/15 07:35:07;;;;;;;5.87;3.10;;;;;;;19.09;100.00;97178.19;4133879;28;20706;-86
2022/09/15 07:37:10;;;;;;;3.90;2.80;;;;;;;19.10;100.00;97178.00;4144095;28;20694;-86
2022/09/15 07:39:13;;;;;;;5.10;2.70;;;;;;;19.10;100.00;97180.66;4155199;28;21124;-86
2022/09/15 07:41:18;;;;;;;3.53;2.83;;;;;;;19.12;100.00;97178.66;4158881;28;20720;-85
2022/09/15 07:43:21;;;;;;;3.70;2.53;;;;;;;19.16;100.00;97174.66;4156668;28;20634;-87
2022/09/15 07:45:24;;;;;;;6.30;2.40;;;;;;;19.23;100.00;97182.69;4170964;28;20664;-86
2022/09/15 07:47:27;;;;;;;4.57;2.87;;;;;;;19.29;100.00;97187.25;4145200;28;20628;-86
2022/09/15 07:49:31;;;;;;;3.40;2.47;;;;;;;19.33;100.00;97185.91;4155510;28;20654;-85
2022/09/15 07:51:35;;;;;;;5.27;4.10;;;;;;;19.35;100.00;97181.25;4150751;28;20668;-86
2022/09/15 07:53:38;;;;;;;6.80;3.67;;;;;;;19.36;100.00;97186.34;4139400;28;20639;-85
2022/09/15 07:55:41;;;;;;;3.20;2.50;;;;;;;19.37;100.00;97194.09;4160300;28;20677;-85
2022/09/15 07:57:44;;;;;;;4.17;2.77;;;;;;;19.40;100.00;97196.38;4142959;28;20649;-85
2022/09/15 07:59:47;;;;;;;4.73;2.53;;;;;;;19.41;100.00;97197.22;4136765;28;20644;-86
2022/09/15 08:01:50;;;;;;;4.03;2.70;;;;;;;19.44;100.00;97202.97;4150781;28;20676;-86
2022/09/15 08:03:54;;;;;;;4.33;2.37;;;;;;;19.46;100.00;97202.78;4150621;28;20685;-86
2022/09/15 08:05:59;;;;;;;4.70;2.50;;;;;;;19.47;100.00;97202.63;4141748;28;20681;-86
2022/09/15 08:08:02;;;;;;;4.40;2.50;;;;;;;19.52;100.00;97208.19;4159887;28;20638;-86
2022/09/15 08:10:06;;;;;;;4.00;2.70;;;;;;;19.53;100.00;97211.63;4168655;28;21244;-86
2022/09/15 08:12:09;;;;;;;4.13;2.60;;;;;;;19.52;100.00;97208.19;4150620;28;20750;-85
2022/09/15 08:14:13;;;;;;;3.57;2.33;;;;;;;19.54;100.00;97214.09;4139050;28;20640;-85
2022/09/15 08:16:18;;;;;;;6.87;2.50;;;;;;;19.58;100.00;97218.03;4154852;28;20658;-86
2022/09/15 08:18:21;;;;;;;5.10;2.83;;;;;;;19.65;100.00;97210.19;4139528;28;20637;-86
2022/09/15 08:20:24;;;;;;;3.33;2.50;;;;;;;19.70;100.00;97213.13;4155555;28;20639;-84
2022/09/15 08:22:28;;;;;;;4.20;2.80;;;;;;;19.76;100.00;97212.41;4153742;28;20645;-84
2022/09/15 08:24:31;;;;;;;4.07;3.20;;;;;;;19.80;100.00;97222.44;4154910;28;20694;-84
2022/09/15 08:26:37;;;;;;;3.90;2.80;;;;;;;19.83;100.00;97234.47;4151083;28;20762;-86
2022/09/15 08:28:40;;;;;;;6.47;4.17;;;;;;;19.86;100.00;97224.41;4148643;28;20667;-85
2022/09/15 08:30:43;;;;;;;4.30;2.90;;;;;;;19.88;100.00;97225.84;4139164;28;20655;-85
2022/09/15 08:32:46;;;;;;;11.53;9.37;;;;;;;19.89;100.00;97234.59;4154360;28;20692;-85
2022/09/15 08:34:49;;;;;;;4.77;3.00;;;;;;;19.87;100.00;97224.22;4167267;28;20630;-86
2022/09/15 08:36:52;;;;;;;2.90;2.27;;;;;;;19.86;100.00;97234.97;4153530;28;20683;-85
2022/09/15 08:38:57;;;;;;;4.03;2.00;;;;;;;19.80;100.00;97233.03;4154237;28;20674;-85
2022/09/15 08:41:03;;;;;;;3.93;2.80;;;;;;;19.63;100.00;97234.19;4139739;28;20668;-87
2022/09/15 08:43:13;;;;;;;3.83;2.67;;;;;;;19.55;100.00;97228.97;4156398;28;21203;-85
2022/09/15 08:45:21;;;;;;;5.03;2.20;;;;;;;19.41;100.00;97228.97;4141680;28;20698;-85
2022/09/15 08:47:27;;;;;;;2.60;2.00;;;;;;;19.19;100.00;97221.88;4155651;28;20661;-85
2022/09/15 08:49:36;;;;;;;4.00;1.80;;;;;;;19.15;100.00;97231.16;4138559;28;20636;-85
2022/09/15 08:51:53;;;;;;;3.17;2.10;;;;;;;19.15;100.00;97236.47;4140373;28;20647;-87
2022/09/15 08:54:02;;;;;;;7.90;2.20;;;;;;;19.12;100.00;97234.16;4172992;28;21111;-87
2022/09/15 08:56:13;;;;;;;3.90;2.23;;;;;;;19.18;100.00;97233.47;4152408;28;20629;-87
2022/09/15 08:58:18;;;;;;;4.40;1.90;;;;;;;19.24;100.00;97237.22;4165158;28;20659;-86
2022/09/15 09:00:21;;;;;;;7.07;1.93;;;;;;;19.26;100.00;97235.22;4151214;28;20672;-86
2022/09/15 09:02:47;;;;;;;6.73;2.20;;;;;;;19.30;100.00;97245.25;4137973;28;20649;-87
2022/09/15 09:05:04;;;;;;;4.50;2.10;;;;;;;19.31;100.00;97248.75;4138367;28;20662;-85
2022/09/15 09:07:19;;;;;;;4.60;2.07;;;;;;;19.33;100.00;97244.91;4142774;28;20680;-86
2022/09/15 09:09:34;;;;;;;2.67;1.70;;;;;;;19.37;100.00;97249.66;4151229;28;20636;-86
2022/09/15 09:12:00;;;;;;;2.93;1.67;;;;;;;19.41;100.00;97245.66;4139885;28;20636;-86
2022/09/15 09:14:13;;;;;;;1.70;1.20;;;;;;;19.46;100.00;97251.22;4170531;28;21304;-86
2022/09/15 09:16:33;;;;;;;2.13;1.50;;;;;;;19.51;100.00;97243.56;4140293;28;21357;-86
2022/09/15 09:18:53;;;;;;;2.97;1.30;;;;;;;19.56;100.00;97248.31;4139947;28;21311;-85
2022/09/15 09:21:02;;;;;;;2.90;1.40;;;;;;;19.57;100.00;97249.97;4150705;28;20648;-86
2022/09/15 09:23:09;;;;;;;2.83;1.20;;;;;;;19.59;100.00;97254.09;4154258;28;20844;-86
2022/09/15 09:25:17;;;;;;;4.20;1.33;;;;;;;19.62;100.00;97253.72;4151072;28;20636;-86
2022/09/15 09:27:32;;;;;;;2.30;1.10;;;;;;;19.67;100.00;97259.28;4173229;28;20734;-86
2022/09/15 09:29:39;;;;;;;2.20;1.00;;;;;;;19.71;100.00;97255.28;4160394;28;20671;-86
2022/09/15 09:31:43;;;;;;;1.33;0.87;;;;;;;19.76;100.00;97260.03;4134372;28;20690;-86
2022/09/15 09:33:50;;;;;;;2.70;1.03;;;;;;;19.83;100.00;97263.59;4134325;28;20696;-85
2022/09/15 09:35:53;;;;;;;3.30;1.10;;;;;;;19.90;100.00;97260.88;4159906;28;21254;-85
2022/09/15 09:37:58;;;;;;;3.30;1.17;;;;;;;19.96;100.00;97257.50;4172132;28;20668;-85
2022/09/15 09:40:02;;;;;;;2.03;1.00;;;;;;;20.02;100.00;97248.81;4140346;28;21259;-85
2022/09/15 09:42:07;;;;;;;4.87;1.10;;;;;;;20.10;100.00;97262.00;4144854;28;21238;-86
2022/09/15 09:44:13;;;;;;;1.50;0.70;;;;;;;20.11;100.00;97255.69;4139054;28;20634;-86